Aliq, Pennsylvania
Current Conditions -  °F | °C
As of 3:51 PM on Monday 22 Dec 2014 (Local Time) from KPIT Reporting Station
Broken Clouds Broken Clouds  
Wind Chill: 42°   Ceiling: 25000
Heat Index: 45°   Visibility: 10mi
Dew Point: 31°   Wind: 6mph
Humidity: 58%   Direction: 80°E
Pressure: 29.97"   Gusts: NA
Location:  40.5921°N, 80.3191°W
Report Text: KPIT 222051Z 08005KT 10SM FEW110 BKN250 07/M01 A2997 RMK AO2 SLP167 T00721006 56020
Loading
Personal Weather Stations






























Interactive Weather Map New forecast layout! Learn more

10-Day Weather Forecast

Advertisements
Track Severe Weather on mobile